sensor_id;sensor_type;location;lat;lon;timestamp;P1;durP1;ratioP1;P2;durP2;ratioP2
5876;SDS011;2964;42.144;24.730;2023-10-08T00:01:39;17.60;;;10.93;;
5876;SDS011;2964;42.144;24.730;2023-10-08T00:04:07;22.33;;;11.73;;
5876;SDS011;2964;42.144;24.730;2023-10-08T00:06:35;16.50;;;10.73;;
5876;SDS011;2964;42.144;24.730;2023-10-08T00:09:03;16.40;;;11.07;;
5876;SDS011;2964;42.144;24.730;2023-10-08T00:11:36;15.40;;;10.50;;
5876;SDS011;2964;42.144;24.730;2023-10-08T00:14:05;17.37;;;10.80;;
5876;SDS011;2964;42.144;24.730;2023-10-08T00:16:35;20.03;;;11.63;;
5876;SDS011;2964;42.144;24.730;2023-10-08T00:19:05;15.77;;;10.53;;
5876;SDS011;2964;42.144;24.730;2023-10-08T00:21:40;21.63;;;10.63;;
5876;SDS011;2964;42.144;24.730;2023-10-08T00:24:09;19.67;;;10.03;;
5876;SDS011;2964;42.144;24.730;2023-10-08T00:26:37;19.87;;;10.37;;
5876;SDS011;2964;42.144;24.730;2023-10-08T00:29:06;17.00;;;10.80;;
5876;SDS011;2964;42.144;24.730;2023-10-08T00:31:41;11.20;;;9.70;;
5876;SDS011;2964;42.144;24.730;2023-10-08T00:34:11;15.40;;;10.47;;
5876;SDS011;2964;42.144;24.730;2023-10-08T00:36:39;15.47;;;10.63;;
5876;SDS011;2964;42.144;24.730;2023-10-08T00:39:07;12.80;;;10.23;;
5876;SDS011;2964;42.144;24.730;2023-10-08T00:41:38;15.40;;;10.63;;
5876;SDS011;2964;42.144;24.730;2023-10-08T00:44:08;13.70;;;10.47;;
5876;SDS011;2964;42.144;24.730;2023-10-08T00:46:37;14.77;;;10.10;;
5876;SDS011;2964;42.144;24.730;2023-10-08T00:49:08;18.97;;;10.20;;
5876;SDS011;2964;42.144;24.730;2023-10-08T00:51:51;17.70;;;10.40;;
5876;SDS011;2964;42.144;24.730;2023-10-08T00:54:46;14.77;;;9.93;;
5876;SDS011;2964;42.144;24.730;2023-10-08T00:57:21;14.97;;;9.27;;
5876;SDS011;2964;42.144;24.730;2023-10-08T00:59:52;14.57;;;9.83;;
5876;SDS011;2964;42.144;24.730;2023-10-08T01:02:19;13.37;;;9.13;;
5876;SDS011;2964;42.144;24.730;2023-10-08T01:04:50;11.67;;;9.60;;
5876;SDS011;2964;42.144;24.730;2023-10-08T01:07:18;13.90;;;8.60;;
5876;SDS011;2964;42.144;24.730;2023-10-08T01:09:45;14.63;;;9.83;;
5876;SDS011;2964;42.144;24.730;2023-10-08T01:12:17;11.10;;;9.10;;
5876;SDS011;2964;42.144;24.730;2023-10-08T01:14:46;10.77;;;9.70;;
5876;SDS011;2964;42.144;24.730;2023-10-08T01:17:15;13.20;;;9.47;;
5876;SDS011;2964;42.144;24.730;2023-10-08T01:19:44;13.03;;;9.43;;
5876;SDS011;2964;42.144;24.730;2023-10-08T01:22:17;14.50;;;8.70;;
5876;SDS011;2964;42.144;24.730;2023-10-08T01:24:45;16.07;;;9.60;;
5876;SDS011;2964;42.144;24.730;2023-10-08T01:27:13;11.43;;;8.57;;
5876;SDS011;2964;42.144;24.730;2023-10-08T01:29:46;10.67;;;8.63;;
5876;SDS011;2964;42.144;24.730;2023-10-08T01:32:14;10.77;;;8.67;;
5876;SDS011;2964;42.144;24.730;2023-10-08T01:34:42;10.60;;;8.30;;
5876;SDS011;2964;42.144;24.730;2023-10-08T01:37:12;9.63;;;8.47;;
5876;SDS011;2964;42.144;24.730;2023-10-08T01:39:40;8.77;;;7.87;;
5876;SDS011;2964;42.144;24.730;2023-10-08T01:42:07;9.23;;;7.53;;
5876;SDS011;2964;42.144;24.730;2023-10-08T01:44:41;11.33;;;8.23;;
5876;SDS011;2964;42.144;24.730;2023-10-08T01:47:10;11.80;;;8.17;;
5876;SDS011;2964;42.144;24.730;2023-10-08T01:49:38;11.67;;;8.30;;
5876;SDS011;2964;42.144;24.730;2023-10-08T01:52:05;8.30;;;7.60;;
5876;SDS011;2964;42.144;24.730;2023-10-08T01:54:32;9.50;;;7.93;;
5876;SDS011;2964;42.144;24.730;2023-10-08T01:57:02;9.73;;;8.07;;
5876;SDS011;2964;42.144;24.730;2023-10-08T01:59:30;8.73;;;7.83;;
5876;SDS011;2964;42.144;24.730;2023-10-08T02:01:58;8.07;;;7.47;;
5876;SDS011;2964;42.144;24.730;2023-10-08T02:04:25;8.13;;;7.53;;
5876;SDS011;2964;42.144;24.730;2023-10-08T02:06:51;11.57;;;7.40;;
5876;SDS011;2964;42.144;24.730;2023-10-08T02:09:18;7.67;;;7.07;;
5876;SDS011;2964;42.144;24.730;2023-10-08T02:11:51;13.73;;;8.23;;
5876;SDS011;2964;42.144;24.730;2023-10-08T02:14:21;11.03;;;7.93;;
5876;SDS011;2964;42.144;24.730;2023-10-08T02:16:48;9.13;;;7.63;;
5876;SDS011;2964;42.144;24.730;2023-10-08T02:19:17;8.37;;;7.77;;
5876;SDS011;2964;42.144;24.730;2023-10-08T02:21:52;9.13;;;7.37;;
5876;SDS011;2964;42.144;24.730;2023-10-08T02:24:19;8.80;;;7.90;;
5876;SDS011;2964;42.144;24.730;2023-10-08T02:26:47;9.30;;;8.27;;
5876;SDS011;2964;42.144;24.730;2023-10-08T02:29:14;9.10;;;8.20;;
5876;SDS011;2964;42.144;24.730;2023-10-08T02:31:42;8.13;;;7.50;;
5876;SDS011;2964;42.144;24.730;2023-10-08T02:34:09;8.80;;;7.90;;
5876;SDS011;2964;42.144;24.730;2023-10-08T02:36:37;9.30;;;8.03;;
5876;SDS011;2964;42.144;24.730;2023-10-08T02:39:05;13.10;;;9.27;;
5876;SDS011;2964;42.144;24.730;2023-10-08T02:41:38;17.30;;;9.77;;
5876;SDS011;2964;42.144;24.730;2023-10-08T02:44:06;16.27;;;10.60;;
5876;SDS011;2964;42.144;24.730;2023-10-08T02:46:37;13.97;;;10.43;;
5876;SDS011;2964;42.144;24.730;2023-10-08T02:49:07;16.37;;;11.10;;
5876;SDS011;2964;42.144;24.730;2023-10-08T02:51:36;14.70;;;10.70;;
5876;SDS011;2964;42.144;24.730;2023-10-08T02:54:03;16.27;;;10.23;;
5876;SDS011;2964;42.144;24.730;2023-10-08T02:56:31;12.63;;;8.87;;
5876;SDS011;2964;42.144;24.730;2023-10-08T02:58:58;22.63;;;9.33;;
5876;SDS011;2964;42.144;24.730;2023-10-08T03:01:25;12.23;;;8.67;;
5876;SDS011;2964;42.144;24.730;2023-10-08T03:03:52;9.10;;;8.23;;
5876;SDS011;2964;42.144;24.730;2023-10-08T03:06:28;11.73;;;8.80;;
5876;SDS011;2964;42.144;24.730;2023-10-08T03:08:57;11.67;;;8.80;;
5876;SDS011;2964;42.144;24.730;2023-10-08T03:11:29;14.67;;;8.77;;
5876;SDS011;2964;42.144;24.730;2023-10-08T03:13:56;10.17;;;7.73;;
5876;SDS011;2964;42.144;24.730;2023-10-08T03:16:24;12.03;;;6.93;;
5876;SDS011;2964;42.144;24.730;2023-10-08T03:18:53;12.37;;;7.87;;
5876;SDS011;2964;42.144;24.730;2023-10-08T03:21:22;11.57;;;7.57;;
5876;SDS011;2964;42.144;24.730;2023-10-08T03:24:10;10.60;;;7.20;;
5876;SDS011;2964;42.144;24.730;2023-10-08T03:26:54;11.80;;;8.33;;
5876;SDS011;2964;42.144;24.730;2023-10-08T03:29:31;10.00;;;7.70;;
5876;SDS011;2964;42.144;24.730;2023-10-08T03:31:58;11.97;;;7.90;;
5876;SDS011;2964;42.144;24.730;2023-10-08T03:34:31;14.13;;;7.87;;
5876;SDS011;2964;42.144;24.730;2023-10-08T03:36:59;11.77;;;8.10;;
5876;SDS011;2964;42.144;24.730;2023-10-08T03:39:32;16.20;;;8.83;;
5876;SDS011;2964;42.144;24.730;2023-10-08T03:42:12;15.17;;;7.63;;
5876;SDS011;2964;42.144;24.730;2023-10-08T03:44:45;11.53;;;8.37;;
5876;SDS011;2964;42.144;24.730;2023-10-08T03:47:16;14.53;;;9.30;;
5876;SDS011;2964;42.144;24.730;2023-10-08T03:49:44;13.47;;;9.13;;
5876;SDS011;2964;42.144;24.730;2023-10-08T03:52:11;14.97;;;9.40;;
5876;SDS011;2964;42.144;24.730;2023-10-08T03:54:40;14.97;;;9.30;;
5876;SDS011;2964;42.144;24.730;2023-10-08T03:57:13;11.90;;;8.70;;
5876;SDS011;2964;42.144;24.730;2023-10-08T03:59:44;12.53;;;7.90;;
5876;SDS011;2964;42.144;24.730;2023-10-08T04:02:13;8.83;;;7.27;;
5876;SDS011;2964;42.144;24.730;2023-10-08T04:04:47;9.27;;;7.87;;
5876;SDS011;2964;42.144;24.730;2023-10-08T04:07:22;17.43;;;7.30;;
5876;SDS011;2964;42.144;24.730;2023-10-08T04:09:55;11.23;;;7.40;;
5876;SDS011;2964;42.144;24.730;2023-10-08T04:12:42;10.77;;;6.53;;
5876;SDS011;2964;42.144;24.730;2023-10-08T04:15:13;9.63;;;7.13;;
5876;SDS011;2964;42.144;24.730;2023-10-08T04:17:41;9.77;;;7.00;;
5876;SDS011;2964;42.144;24.730;2023-10-08T04:20:10;12.37;;;7.00;;
5876;SDS011;2964;42.144;24.730;2023-10-08T04:22:56;11.77;;;6.70;;
5876;SDS011;2964;42.144;24.730;2023-10-08T04:25:25;7.27;;;6.67;;
5876;SDS011;2964;42.144;24.730;2023-10-08T04:27:53;6.93;;;6.50;;
5876;SDS011;2964;42.144;24.730;2023-10-08T04:30:23;6.97;;;6.47;;
5876;SDS011;2964;42.144;24.730;2023-10-08T04:32:57;8.40;;;6.50;;
5876;SDS011;2964;42.144;24.730;2023-10-08T04:35:31;7.13;;;6.33;;
5876;SDS011;2964;42.144;24.730;2023-10-08T04:38:01;7.50;;;6.67;;
5876;SDS011;2964;42.144;24.730;2023-10-08T04:40:30;10.47;;;6.93;;
5876;SDS011;2964;42.144;24.730;2023-10-08T04:43:13;7.30;;;6.60;;
5876;SDS011;2964;42.144;24.730;2023-10-08T04:45:40;6.47;;;5.97;;
5876;SDS011;2964;42.144;24.730;2023-10-08T04:48:08;9.53;;;7.10;;
5876;SDS011;2964;42.144;24.730;2023-10-08T04:50:35;6.37;;;5.77;;
5876;SDS011;2964;42.144;24.730;2023-10-08T04:53:02;13.10;;;6.70;;
5876;SDS011;2964;42.144;24.730;2023-10-08T04:55:34;7.00;;;6.47;;
5876;SDS011;2964;42.144;24.730;2023-10-08T04:58:06;7.50;;;6.90;;
5876;SDS011;2964;42.144;24.730;2023-10-08T05:00:44;8.00;;;6.43;;
5876;SDS011;2964;42.144;24.730;2023-10-08T05:03:18;7.60;;;6.90;;
5876;SDS011;2964;42.144;24.730;2023-10-08T05:05:48;10.30;;;6.60;;
5876;SDS011;2964;42.144;24.730;2023-10-08T05:08:33;6.93;;;6.27;;
5876;SDS011;2964;42.144;24.730;2023-10-08T05:11:13;7.17;;;6.47;;
5876;SDS011;2964;42.144;24.730;2023-10-08T05:14:11;7.40;;;6.23;;
5876;SDS011;2964;42.144;24.730;2023-10-08T05:16:42;6.20;;;5.70;;
5876;SDS011;2964;42.144;24.730;2023-10-08T05:19:25;7.57;;;6.03;;
5876;SDS011;2964;42.144;24.730;2023-10-08T05:22:13;9.57;;;5.90;;
5876;SDS011;2964;42.144;24.730;2023-10-08T05:25:08;8.30;;;6.17;;
5876;SDS011;2964;42.144;24.730;2023-10-08T05:27:51;8.07;;;6.10;;
5876;SDS011;2964;42.144;24.730;2023-10-08T05:30:24;6.63;;;6.07;;
5876;SDS011;2964;42.144;24.730;2023-10-08T05:32:53;7.57;;;6.43;;
5876;SDS011;2964;42.144;24.730;2023-10-08T05:35:38;7.50;;;6.03;;
5876;SDS011;2964;42.144;24.730;2023-10-08T05:38:20;12.77;;;6.10;;
5876;SDS011;2964;42.144;24.730;2023-10-08T05:41:03;6.93;;;6.30;;
5876;SDS011;2964;42.144;24.730;2023-10-08T05:43:43;6.70;;;5.93;;
5876;SDS011;2964;42.144;24.730;2023-10-08T05:46:38;5.93;;;5.53;;
5876;SDS011;2964;42.144;24.730;2023-10-08T05:49:12;6.20;;;5.40;;
5876;SDS011;2964;42.144;24.730;2023-10-08T05:52:03;6.50;;;5.90;;
5876;SDS011;2964;42.144;24.730;2023-10-08T05:54:47;7.80;;;5.93;;
5876;SDS011;2964;42.144;24.730;2023-10-08T05:57:39;10.30;;;6.17;;
5876;SDS011;2964;42.144;24.730;2023-10-08T06:00:07;6.63;;;6.00;;
5876;SDS011;2964;42.144;24.730;2023-10-08T06:02:51;7.37;;;5.67;;
5876;SDS011;2964;42.144;24.730;2023-10-08T06:05:34;6.77;;;5.87;;
5876;SDS011;2964;42.144;24.730;2023-10-08T06:08:08;7.47;;;5.83;;
5876;SDS011;2964;42.144;24.730;2023-10-08T06:10:39;6.57;;;5.80;;
5876;SDS011;2964;42.144;24.730;2023-10-08T06:13:12;5.93;;;5.50;;
5876;SDS011;2964;42.144;24.730;2023-10-08T06:15:43;6.90;;;5.77;;
5876;SDS011;2964;42.144;24.730;2023-10-08T06:18:13;6.23;;;5.73;;
5876;SDS011;2964;42.144;24.730;2023-10-08T06:20:40;7.13;;;6.43;;
5876;SDS011;2964;42.144;24.730;2023-10-08T06:23:09;8.17;;;6.67;;
5876;SDS011;2964;42.144;24.730;2023-10-08T06:25:37;9.07;;;6.20;;
5876;SDS011;2964;42.144;24.730;2023-10-08T06:28:12;7.63;;;6.50;;
5876;SDS011;2964;42.144;24.730;2023-10-08T06:30:40;12.10;;;6.90;;
5876;SDS011;2964;42.144;24.730;2023-10-08T06:33:09;6.10;;;5.77;;
5876;SDS011;2964;42.144;24.730;2023-10-08T06:35:36;9.73;;;6.13;;
5876;SDS011;2964;42.144;24.730;2023-10-08T06:38:03;6.90;;;6.20;;
5876;SDS011;2964;42.144;24.730;2023-10-08T06:40:34;8.87;;;6.20;;
5876;SDS011;2964;42.144;24.730;2023-10-08T06:43:07;6.83;;;6.13;;
5876;SDS011;2964;42.144;24.730;2023-10-08T06:45:49;10.93;;;6.37;;
5876;SDS011;2964;42.144;24.730;2023-10-08T06:48:20;10.20;;;7.13;;
5876;SDS011;2964;42.144;24.730;2023-10-08T06:50:48;12.60;;;8.13;;
5876;SDS011;2964;42.144;24.730;2023-10-08T06:53:16;17.57;;;8.47;;
5876;SDS011;2964;42.144;24.730;2023-10-08T06:55:44;19.53;;;11.20;;
5876;SDS011;2964;42.144;24.730;2023-10-08T06:58:13;21.37;;;11.37;;
5876;SDS011;2964;42.144;24.730;2023-10-08T07:00:40;19.87;;;13.20;;
5876;SDS011;2964;42.144;24.730;2023-10-08T07:03:11;21.90;;;13.87;;
5876;SDS011;2964;42.144;24.730;2023-10-08T07:05:42;28.93;;;13.77;;
5876;SDS011;2964;42.144;24.730;2023-10-08T07:08:19;27.23;;;14.10;;
5876;SDS011;2964;42.144;24.730;2023-10-08T07:10:48;21.93;;;12.70;;
5876;SDS011;2964;42.144;24.730;2023-10-08T07:13:15;25.73;;;12.13;;
5876;SDS011;2964;42.144;24.730;2023-10-08T07:15:43;19.70;;;11.30;;
5876;SDS011;2964;42.144;24.730;2023-10-08T07:18:10;26.30;;;14.30;;
5876;SDS011;2964;42.144;24.730;2023-10-08T07:20:39;16.03;;;9.70;;
5876;SDS011;2964;42.144;24.730;2023-10-08T07:23:08;11.17;;;8.50;;
5876;SDS011;2964;42.144;24.730;2023-10-08T07:25:44;14.27;;;8.47;;
5876;SDS011;2964;42.144;24.730;2023-10-08T07:28:18;12.57;;;6.77;;
5876;SDS011;2964;42.144;24.730;2023-10-08T07:30:46;9.13;;;7.07;;
5876;SDS011;2964;42.144;24.730;2023-10-08T07:33:14;8.02;;;7.22;;
5876;SDS011;2964;42.144;24.730;2023-10-08T07:35:44;8.85;;;6.43;;
5876;SDS011;2964;42.144;24.730;2023-10-08T07:38:21;9.68;;;6.07;;
5876;SDS011;2964;42.144;24.730;2023-10-08T07:40:48;9.07;;;6.63;;
5876;SDS011;2964;42.144;24.730;2023-10-08T07:43:15;14.50;;;6.65;;
5876;SDS011;2964;42.144;24.730;2023-10-08T07:45:45;14.18;;;6.65;;
5876;SDS011;2964;42.144;24.730;2023-10-08T07:48:12;15.27;;;7.00;;
5876;SDS011;2964;42.144;24.730;2023-10-08T07:50:41;14.88;;;7.05;;
5876;SDS011;2964;42.144;24.730;2023-10-08T07:53:10;23.73;;;6.50;;
5876;SDS011;2964;42.144;24.730;2023-10-08T07:55:45;33.63;;;6.90;;
5876;SDS011;2964;42.144;24.730;2023-10-08T07:58:13;19.95;;;7.28;;
5876;SDS011;2964;42.144;24.730;2023-10-08T08:00:41;32.10;;;8.90;;
5876;SDS011;2964;42.144;24.730;2023-10-08T08:03:16;72.68;;;10.07;;
5876;SDS011;2964;42.144;24.730;2023-10-08T08:05:46;15.88;;;6.22;;
5876;SDS011;2964;42.144;24.730;2023-10-08T08:08:14;36.10;;;8.32;;
5876;SDS011;2964;42.144;24.730;2023-10-08T08:10:44;16.25;;;5.85;;
5876;SDS011;2964;42.144;24.730;2023-10-08T08:13:11;23.75;;;7.05;;
5876;SDS011;2964;42.144;24.730;2023-10-08T08:15:45;17.63;;;6.63;;
5876;SDS011;2964;42.144;24.730;2023-10-08T08:18:16;11.07;;;6.38;;
5876;SDS011;2964;42.144;24.730;2023-10-08T08:20:47;9.60;;;6.22;;
5876;SDS011;2964;42.144;24.730;2023-10-08T08:23:14;18.60;;;7.35;;
5876;SDS011;2964;42.144;24.730;2023-10-08T08:25:43;8.38;;;7.07;;
5876;SDS011;2964;42.144;24.730;2023-10-08T08:28:20;10.65;;;7.32;;
5876;SDS011;2964;42.144;24.730;2023-10-08T08:30:50;30.73;;;11.02;;
5876;SDS011;2964;42.144;24.730;2023-10-08T08:33:17;18.55;;;8.63;;
5876;SDS011;2964;42.144;24.730;2023-10-08T08:35:56;17.58;;;9.77;;
5876;SDS011;2964;42.144;24.730;2023-10-08T08:38:24;9.00;;;6.53;;
5876;SDS011;2964;42.144;24.730;2023-10-08T08:40:52;13.45;;;7.38;;
5876;SDS011;2964;42.144;24.730;2023-10-08T08:43:31;8.60;;;7.20;;
5876;SDS011;2964;42.144;24.730;2023-10-08T08:46:00;14.05;;;7.72;;
5876;SDS011;2964;42.144;24.730;2023-10-08T08:48:27;11.57;;;6.95;;
5876;SDS011;2964;42.144;24.730;2023-10-08T08:50:57;8.63;;;7.68;;
5876;SDS011;2964;42.144;24.730;2023-10-08T08:53:24;11.45;;;7.95;;
5876;SDS011;2964;42.144;24.730;2023-10-08T08:55:53;17.40;;;8.02;;
5876;SDS011;2964;42.144;24.730;2023-10-08T08:58:21;9.50;;;6.88;;
5876;SDS011;2964;42.144;24.730;2023-10-08T09:00:50;16.00;;;7.53;;
5876;SDS011;2964;42.144;24.730;2023-10-08T09:03:21;13.18;;;7.57;;
5876;SDS011;2964;42.144;24.730;2023-10-08T09:05:55;10.13;;;7.15;;
5876;SDS011;2964;42.144;24.730;2023-10-08T09:08:22;15.35;;;7.18;;
5876;SDS011;2964;42.144;24.730;2023-10-08T09:10:54;8.50;;;7.18;;
5876;SDS011;2964;42.144;24.730;2023-10-08T09:13:26;10.55;;;6.65;;
5876;SDS011;2964;42.144;24.730;2023-10-08T09:15:56;9.35;;;7.32;;
5876;SDS011;2964;42.144;24.730;2023-10-08T09:18:23;32.17;;;8.60;;
5876;SDS011;2964;42.144;24.730;2023-10-08T09:20:52;11.82;;;6.47;;
5876;SDS011;2964;42.144;24.730;2023-10-08T09:23:20;7.10;;;6.15;;
5876;SDS011;2964;42.144;24.730;2023-10-08T09:25:48;8.82;;;7.10;;
5876;SDS011;2964;42.144;24.730;2023-10-08T09:28:18;26.15;;;8.20;;
5876;SDS011;2964;42.144;24.730;2023-10-08T09:30:46;8.57;;;7.25;;
5876;SDS011;2964;42.144;24.730;2023-10-08T09:33:14;15.38;;;7.25;;
5876;SDS011;2964;42.144;24.730;2023-10-08T09:35:41;14.45;;;6.65;;
5876;SDS011;2964;42.144;24.730;2023-10-08T09:38:09;7.07;;;6.57;;
5876;SDS011;2964;42.144;24.730;2023-10-08T09:40:36;9.90;;;7.28;;
5876;SDS011;2964;42.144;24.730;2023-10-08T09:43:03;22.42;;;7.70;;
5876;SDS011;2964;42.144;24.730;2023-10-08T09:45:35;22.40;;;6.90;;
5876;SDS011;2964;42.144;24.730;2023-10-08T09:48:03;17.70;;;7.03;;
5876;SDS011;2964;42.144;24.730;2023-10-08T09:50:38;17.75;;;7.10;;
5876;SDS011;2964;42.144;24.730;2023-10-08T09:53:07;14.60;;;7.32;;
5876;SDS011;2964;42.144;24.730;2023-10-08T09:55:41;14.25;;;7.75;;
5876;SDS011;2964;42.144;24.730;2023-10-08T09:58:13;12.35;;;7.97;;
5876;SDS011;2964;42.144;24.730;2023-10-08T10:00:43;11.00;;;6.90;;
5876;SDS011;2964;42.144;24.730;2023-10-08T10:03:13;13.10;;;7.18;;
5876;SDS011;2964;42.144;24.730;2023-10-08T10:05:42;7.85;;;6.88;;
5876;SDS011;2964;42.144;24.730;2023-10-08T10:08:09;13.02;;;7.60;;
5876;SDS011;2964;42.144;24.730;2023-10-08T10:10:37;10.05;;;6.53;;
5876;SDS011;2964;42.144;24.730;2023-10-08T10:13:05;7.85;;;6.63;;
5876;SDS011;2964;42.144;24.730;2023-10-08T10:15:33;21.17;;;7.22;;
5876;SDS011;2964;42.144;24.730;2023-10-08T10:18:09;31.83;;;6.60;;
5876;SDS011;2964;42.144;24.730;2023-10-08T10:20:39;19.88;;;6.82;;
5876;SDS011;2964;42.144;24.730;2023-10-08T10:26:01;10.00;;;6.65;;
5876;SDS011;2964;42.144;24.730;2023-10-08T10:28:29;14.88;;;6.63;;
5876;SDS011;2964;42.144;24.730;2023-10-08T10:30:56;14.05;;;6.88;;
5876;SDS011;2964;42.144;24.730;2023-10-08T10:33:30;14.77;;;6.45;;
5876;SDS011;2964;42.144;24.730;2023-10-08T10:35:58;11.10;;;6.40;;
5876;SDS011;2964;42.144;24.730;2023-10-08T10:38:30;13.27;;;6.68;;
5876;SDS011;2964;42.144;24.730;2023-10-08T10:40:59;10.98;;;6.20;;
5876;SDS011;2964;42.144;24.730;2023-10-08T10:43:33;24.02;;;7.22;;
5876;SDS011;2964;42.144;24.730;2023-10-08T10:46:01;29.80;;;7.57;;
5876;SDS011;2964;42.144;24.730;2023-10-08T10:48:51;7.60;;;5.30;;
5876;SDS011;2964;42.144;24.730;2023-10-08T10:51:30;13.77;;;5.85;;
5876;SDS011;2964;42.144;24.730;2023-10-08T10:53:59;14.43;;;5.72;;
5876;SDS011;2964;42.144;24.730;2023-10-08T10:56:33;15.00;;;6.53;;
5876;SDS011;2964;42.144;24.730;2023-10-08T10:59:05;11.98;;;6.18;;
5876;SDS011;2964;42.144;24.730;2023-10-08T11:01:41;19.42;;;6.75;;
5876;SDS011;2964;42.144;24.730;2023-10-08T11:04:13;11.18;;;6.03;;
5876;SDS011;2964;42.144;24.730;2023-10-08T11:06:44;7.63;;;6.07;;
5876;SDS011;2964;42.144;24.730;2023-10-08T11:09:13;10.63;;;6.53;;
5876;SDS011;2964;42.144;24.730;2023-10-08T11:11:41;20.30;;;6.38;;
5876;SDS011;2964;42.144;24.730;2023-10-08T11:14:11;22.20;;;7.07;;
5876;SDS011;2964;42.144;24.730;2023-10-08T11:16:44;11.50;;;6.03;;
5876;SDS011;2964;42.144;24.730;2023-10-08T11:19:11;8.65;;;6.32;;
5876;SDS011;2964;42.144;24.730;2023-10-08T11:21:50;8.27;;;5.97;;
5876;SDS011;2964;42.144;24.730;2023-10-08T11:24:28;31.63;;;7.57;;
5876;SDS011;2964;42.144;24.730;2023-10-08T11:26:58;17.30;;;6.68;;
5876;SDS011;2964;42.144;24.730;2023-10-08T11:29:41;11.00;;;6.15;;
5876;SDS011;2964;42.144;24.730;2023-10-08T11:32:08;17.88;;;6.32;;
5876;SDS011;2964;42.144;24.730;2023-10-08T11:34:39;11.02;;;6.45;;
5876;SDS011;2964;42.144;24.730;2023-10-08T11:37:05;12.30;;;7.43;;
5876;SDS011;2964;42.144;24.730;2023-10-08T11:39:45;10.18;;;6.55;;
5876;SDS011;2964;42.144;24.730;2023-10-08T11:42:11;9.13;;;7.28;;
5876;SDS011;2964;42.144;24.730;2023-10-08T11:45:03;17.10;;;7.07;;
5876;SDS011;2964;42.144;24.730;2023-10-08T11:47:43;10.27;;;7.13;;
5876;SDS011;2964;42.144;24.730;2023-10-08T11:50:11;22.17;;;8.35;;
5876;SDS011;2964;42.144;24.730;2023-10-08T11:52:44;18.73;;;6.85;;
5876;SDS011;2964;42.144;24.730;2023-10-08T11:55:11;7.95;;;6.03;;
5876;SDS011;2964;42.144;24.730;2023-10-08T11:57:43;12.93;;;7.55;;
5876;SDS011;2964;42.144;24.730;2023-10-08T12:00:14;8.75;;;7.03;;
5876;SDS011;2964;42.144;24.730;2023-10-08T12:02:50;8.63;;;5.72;;
5876;SDS011;2964;42.144;24.730;2023-10-08T12:05:20;14.23;;;7.72;;
5876;SDS011;2964;42.144;24.730;2023-10-08T12:07:49;13.02;;;7.50;;
5876;SDS011;2964;42.144;24.730;2023-10-08T12:10:17;13.68;;;6.97;;
5876;SDS011;2964;42.144;24.730;2023-10-08T12:12:47;10.95;;;6.88;;
5876;SDS011;2964;42.144;24.730;2023-10-08T12:15:14;19.50;;;7.45;;
5876;SDS011;2964;42.144;24.730;2023-10-08T12:17:45;9.70;;;6.55;;
5876;SDS011;2964;42.144;24.730;2023-10-08T12:20:34;10.63;;;7.88;;
5876;SDS011;2964;42.144;24.730;2023-10-08T12:23:02;13.13;;;7.65;;
5876;SDS011;2964;42.144;24.730;2023-10-08T12:25:30;13.65;;;7.05;;
5876;SDS011;2964;42.144;24.730;2023-10-08T12:27:57;6.57;;;5.97;;
5876;SDS011;2964;42.144;24.730;2023-10-08T12:30:27;11.68;;;7.43;;
5876;SDS011;2964;42.144;24.730;2023-10-08T12:32:56;16.52;;;7.60;;
5876;SDS011;2964;42.144;24.730;2023-10-08T12:35:24;7.57;;;6.90;;
5876;SDS011;2964;42.144;24.730;2023-10-08T12:37:53;9.70;;;6.40;;
5876;SDS011;2964;42.144;24.730;2023-10-08T12:40:20;9.68;;;6.78;;
5876;SDS011;2964;42.144;24.730;2023-10-08T12:42:49;8.80;;;7.00;;
5876;SDS011;2964;42.144;24.730;2023-10-08T12:45:19;16.40;;;8.13;;
5876;SDS011;2964;42.144;24.730;2023-10-08T12:47:47;7.88;;;6.35;;
5876;SDS011;2964;42.144;24.730;2023-10-08T12:50:16;10.93;;;6.80;;
5876;SDS011;2964;42.144;24.730;2023-10-08T12:52:48;8.27;;;6.93;;
5876;SDS011;2964;42.144;24.730;2023-10-08T12:55:22;15.55;;;6.78;;
5876;SDS011;2964;42.144;24.730;2023-10-08T12:57:50;15.30;;;6.80;;
5876;SDS011;2964;42.144;24.730;2023-10-08T13:00:21;10.02;;;6.97;;
5876;SDS011;2964;42.144;24.730;2023-10-08T13:02:49;13.25;;;7.82;;
5876;SDS011;2964;42.144;24.730;2023-10-08T13:05:19;10.45;;;8.10;;
5876;SDS011;2964;42.144;24.730;2023-10-08T13:07:53;10.27;;;6.38;;
5876;SDS011;2964;42.144;24.730;2023-10-08T13:10:21;10.18;;;6.68;;
5876;SDS011;2964;42.144;24.730;2023-10-08T13:12:48;10.68;;;6.45;;
5876;SDS011;2964;42.144;24.730;2023-10-08T13:15:16;13.70;;;7.22;;
5876;SDS011;2964;42.144;24.730;2023-10-08T13:17:43;16.10;;;7.22;;
5876;SDS011;2964;42.144;24.730;2023-10-08T13:20:11;10.18;;;6.43;;
5876;SDS011;2964;42.144;24.730;2023-10-08T13:22:38;13.77;;;6.57;;
5876;SDS011;2964;42.144;24.730;2023-10-08T13:25:05;8.60;;;6.50;;
5876;SDS011;2964;42.144;24.730;2023-10-08T13:27:34;7.68;;;6.13;;
5876;SDS011;2964;42.144;24.730;2023-10-08T13:30:04;9.13;;;6.38;;
5876;SDS011;2964;42.144;24.730;2023-10-08T13:32:34;12.57;;;6.47;;
5876;SDS011;2964;42.144;24.730;2023-10-08T13:35:01;12.88;;;7.22;;
5876;SDS011;2964;42.144;24.730;2023-10-08T13:37:29;7.20;;;6.18;;
5876;SDS011;2964;42.144;24.730;2023-10-08T13:39:56;9.63;;;6.63;;
5876;SDS011;2964;42.144;24.730;2023-10-08T13:42:22;9.80;;;7.03;;
5876;SDS011;2964;42.144;24.730;2023-10-08T13:44:53;8.68;;;6.55;;
5876;SDS011;2964;42.144;24.730;2023-10-08T13:47:20;12.55;;;7.50;;
5876;SDS011;2964;42.144;24.730;2023-10-08T13:49:50;16.25;;;6.43;;
5876;SDS011;2964;42.144;24.730;2023-10-08T13:52:17;17.45;;;7.10;;
5876;SDS011;2964;42.144;24.730;2023-10-08T13:54:45;8.82;;;6.47;;
5876;SDS011;2964;42.144;24.730;2023-10-08T13:57:17;13.38;;;6.72;;
5876;SDS011;2964;42.144;24.730;2023-10-08T13:59:44;11.57;;;6.28;;
5876;SDS011;2964;42.144;24.730;2023-10-08T14:02:12;9.55;;;8.10;;
5876;SDS011;2964;42.144;24.730;2023-10-08T14:04:40;12.38;;;6.63;;
5876;SDS011;2964;42.144;24.730;2023-10-08T14:07:08;8.93;;;6.25;;
5876;SDS011;2964;42.144;24.730;2023-10-08T14:09:36;8.30;;;6.35;;
5876;SDS011;2964;42.144;24.730;2023-10-08T14:12:03;14.35;;;7.00;;
5876;SDS011;2964;42.144;24.730;2023-10-08T14:14:31;9.35;;;6.22;;
5876;SDS011;2964;42.144;24.730;2023-10-08T14:16:59;7.70;;;6.15;;
5876;SDS011;2964;42.144;24.730;2023-10-08T14:19:32;9.05;;;6.07;;
5876;SDS011;2964;42.144;24.730;2023-10-08T14:22:04;7.32;;;6.57;;
5876;SDS011;2964;42.144;24.730;2023-10-08T14:24:33;8.13;;;6.60;;
5876;SDS011;2964;42.144;24.730;2023-10-08T14:27:03;8.20;;;5.97;;
5876;SDS011;2964;42.144;24.730;2023-10-08T14:29:35;9.55;;;5.90;;
5876;SDS011;2964;42.144;24.730;2023-10-08T14:32:03;10.80;;;6.38;;
5876;SDS011;2964;42.144;24.730;2023-10-08T14:34:35;9.63;;;5.45;;
5876;SDS011;2964;42.144;24.730;2023-10-08T14:37:19;15.93;;;7.57;;
5876;SDS011;2964;42.144;24.730;2023-10-08T14:40:04;8.85;;;5.85;;
5876;SDS011;2964;42.144;24.730;2023-10-08T14:42:49;12.25;;;6.60;;
5876;SDS011;2964;42.144;24.730;2023-10-08T14:45:21;13.23;;;6.30;;
5876;SDS011;2964;42.144;24.730;2023-10-08T14:47:51;12.50;;;7.75;;
5876;SDS011;2964;42.144;24.730;2023-10-08T14:50:21;13.25;;;6.90;;
5876;SDS011;2964;42.144;24.730;2023-10-08T14:52:48;15.23;;;6.50;;
5876;SDS011;2964;42.144;24.730;2023-10-08T14:55:15;15.70;;;6.18;;
5876;SDS011;2964;42.144;24.730;2023-10-08T14:57:41;17.75;;;6.43;;
5876;SDS011;2964;42.144;24.730;2023-10-08T15:00:08;12.57;;;6.07;;
5876;SDS011;2964;42.144;24.730;2023-10-08T15:02:36;12.15;;;7.05;;
5876;SDS011;2964;42.144;24.730;2023-10-08T15:05:04;16.20;;;6.13;;
5876;SDS011;2964;42.144;24.730;2023-10-08T15:07:33;12.98;;;7.20;;
5876;SDS011;2964;42.144;24.730;2023-10-08T15:10:01;17.45;;;6.45;;
5876;SDS011;2964;42.144;24.730;2023-10-08T15:12:27;15.25;;;6.82;;
5876;SDS011;2964;42.144;24.730;2023-10-08T15:14:54;14.60;;;6.55;;
5876;SDS011;2964;42.144;24.730;2023-10-08T15:17:21;11.45;;;6.70;;